sensor_id;sensor_type;location;lat;lon;timestamp;pressure;altitude;pressure_sealevel;temperature;humidity
20710;BME280;10516;51.518;9.864;2023-05-08T00:02:05;99470.06;;;8.26;83.41
20710;BME280;10516;51.518;9.864;2023-05-08T00:04:30;99469.56;;;8.60;81.25
20710;BME280;10516;51.518;9.864;2023-05-08T00:06:55;99471.19;;;8.37;82.35
20710;BME280;10516;51.518;9.864;2023-05-08T00:09:21;99473.28;;;8.35;82.48
20710;BME280;10516;51.518;9.864;2023-05-08T00:11:46;99469.38;;;8.12;83.32
20710;BME280;10516;51.518;9.864;2023-05-08T00:14:12;99460.75;;;8.10;84.10
20710;BME280;10516;51.518;9.864;2023-05-08T00:16:37;99466.91;;;8.11;83.62
20710;BME280;10516;51.518;9.864;2023-05-08T00:19:02;99460.13;;;7.90;84.18
20710;BME280;10516;51.518;9.864;2023-05-08T00:21:28;99466.19;;;7.97;84.53
20710;BME280;10516;51.518;9.864;2023-05-08T00:23:53;99460.72;;;8.17;83.74
20710;BME280;10516;51.518;9.864;2023-05-08T00:26:18;99465.06;;;8.11;83.77
20710;BME280;10516;51.518;9.864;2023-05-08T00:28:44;99467.50;;;8.13;83.62
20710;BME280;10516;51.518;9.864;2023-05-08T00:31:10;99463.47;;;7.79;84.65
20710;BME280;10516;51.518;9.864;2023-05-08T00:33:35;99471.09;;;8.00;84.13
20710;BME280;10516;51.518;9.864;2023-05-08T00:36:01;99467.47;;;8.44;81.84
20710;BME280;10516;51.518;9.864;2023-05-08T00:38:29;99466.69;;;7.88;83.92
20710;BME280;10516;51.518;9.864;2023-05-08T00:40:54;99465.34;;;8.71;80.78
20710;BME280;10516;51.518;9.864;2023-05-08T00:43:19;99475.53;;;8.06;83.31
20710;BME280;10516;51.518;9.864;2023-05-08T00:45:49;99476.91;;;8.40;82.48
20710;BME280;10516;51.518;9.864;2023-05-08T00:48:15;99475.63;;;7.93;83.21
20710;BME280;10516;51.518;9.864;2023-05-08T00:50:40;99473.41;;;8.15;83.00
20710;BME280;10516;51.518;9.864;2023-05-08T00:53:05;99476.69;;;8.42;81.94
20710;BME280;10516;51.518;9.864;2023-05-08T00:55:31;99474.69;;;8.37;81.65
20710;BME280;10516;51.518;9.864;2023-05-08T00:57:56;99467.47;;;9.35;79.11
20710;BME280;10516;51.518;9.864;2023-05-08T01:00:22;99471.63;;;9.13;78.57
20710;BME280;10516;51.518;9.864;2023-05-08T01:02:47;99471.53;;;8.22;80.64
20710;BME280;10516;51.518;9.864;2023-05-08T01:05:12;99467.34;;;7.83;83.38
20710;BME280;10516;51.518;9.864;2023-05-08T01:07:38;99467.00;;;8.29;81.83
20710;BME280;10516;51.518;9.864;2023-05-08T01:10:04;99459.97;;;8.35;81.36
20710;BME280;10516;51.518;9.864;2023-05-08T01:12:33;99468.00;;;8.03;82.14
20710;BME280;10516;51.518;9.864;2023-05-08T01:15:10;99466.50;;;7.83;82.50
20710;BME280;10516;51.518;9.864;2023-05-08T01:28:07;99461.38;;;7.88;83.03
20710;BME280;10516;51.518;9.864;2023-05-08T01:30:43;99466.91;;;7.86;82.17
20710;BME280;10516;51.518;9.864;2023-05-08T01:33:16;99470.72;;;7.66;83.45
20710;BME280;10516;51.518;9.864;2023-05-08T01:35:44;99473.59;;;8.20;81.49
20710;BME280;10516;51.518;9.864;2023-05-08T01:38:13;99469.13;;;7.89;82.96
20710;BME280;10516;51.518;9.864;2023-05-08T01:40:53;99471.97;;;7.94;82.63
20710;BME280;10516;51.518;9.864;2023-05-08T01:46:25;99476.91;;;7.84;83.23
20710;BME280;10516;51.518;9.864;2023-05-08T01:51:36;99476.03;;;7.97;82.90
20710;BME280;10516;51.518;9.864;2023-05-08T01:54:03;99473.09;;;7.49;83.02
20710;BME280;10516;51.518;9.864;2023-05-08T01:56:30;99474.47;;;7.83;83.47
20710;BME280;10516;51.518;9.864;2023-05-08T01:58:57;99479.06;;;7.69;84.07
20710;BME280;10516;51.518;9.864;2023-05-08T02:01:23;99478.06;;;7.32;83.96
20710;BME280;10516;51.518;9.864;2023-05-08T02:03:49;99478.53;;;8.16;82.71
20710;BME280;10516;51.518;9.864;2023-05-08T02:06:15;99482.22;;;7.60;81.98
20710;BME280;10516;51.518;9.864;2023-05-08T02:08:42;99478.28;;;7.69;83.43
20710;BME280;10516;51.518;9.864;2023-05-08T02:11:08;99477.09;;;7.58;83.47
20710;BME280;10516;51.518;9.864;2023-05-08T02:13:35;99477.53;;;8.11;82.28
20710;BME280;10516;51.518;9.864;2023-05-08T02:16:01;99473.47;;;7.84;81.17
20710;BME280;10516;51.518;9.864;2023-05-08T02:18:27;99470.69;;;7.72;81.90
20710;BME280;10516;51.518;9.864;2023-05-08T02:20:54;99478.31;;;7.62;83.67
20710;BME280;10516;51.518;9.864;2023-05-08T02:23:21;99478.59;;;7.10;84.38
20710;BME280;10516;51.518;9.864;2023-05-08T02:25:47;99475.63;;;7.31;84.21
20710;BME280;10516;51.518;9.864;2023-05-08T02:28:13;99474.91;;;7.04;84.85
20710;BME280;10516;51.518;9.864;2023-05-08T02:30:39;99472.84;;;7.50;83.76
20710;BME280;10516;51.518;9.864;2023-05-08T02:33:06;99480.22;;;7.04;83.66
20710;BME280;10516;51.518;9.864;2023-05-08T02:35:32;99471.97;;;7.94;82.95
20710;BME280;10516;51.518;9.864;2023-05-08T02:37:57;99479.97;;;7.56;82.32
20710;BME280;10516;51.518;9.864;2023-05-08T02:40:25;99470.72;;;7.28;82.84
20710;BME280;10516;51.518;9.864;2023-05-08T02:42:51;99479.66;;;7.40;83.38
20710;BME280;10516;51.518;9.864;2023-05-08T02:45:16;99478.56;;;7.16;83.47
20710;BME280;10516;51.518;9.864;2023-05-08T02:50:17;99476.63;;;7.68;82.59
20710;BME280;10516;51.518;9.864;2023-05-08T02:52:45;99478.56;;;7.16;82.82
20710;BME280;10516;51.518;9.864;2023-05-08T02:57:49;99478.66;;;6.90;83.75
20710;BME280;10516;51.518;9.864;2023-05-08T03:00:27;99478.19;;;7.06;83.57
20710;BME280;10516;51.518;9.864;2023-05-08T03:05:29;99460.03;;;7.41;83.34
20710;BME280;10516;51.518;9.864;2023-05-08T03:07:56;99473.72;;;6.94;83.34
20710;BME280;10516;51.518;9.864;2023-05-08T03:10:24;99460.72;;;6.79;83.95
20710;BME280;10516;51.518;9.864;2023-05-08T03:12:52;99461.16;;;7.27;82.90
20710;BME280;10516;51.518;9.864;2023-05-08T03:15:25;99472.47;;;7.03;83.81
20710;BME280;10516;51.518;9.864;2023-05-08T03:17:51;99463.72;;;6.96;82.74
20710;BME280;10516;51.518;9.864;2023-05-08T03:20:18;99461.13;;;6.76;83.92
20710;BME280;10516;51.518;9.864;2023-05-08T03:22:45;99464.81;;;6.75;84.50
20710;BME280;10516;51.518;9.864;2023-05-08T03:25:12;99460.34;;;7.20;83.08
20710;BME280;10516;51.518;9.864;2023-05-08T03:27:38;99461.97;;;7.21;83.72
20710;BME280;10516;51.518;9.864;2023-05-08T03:30:04;99464.94;;;7.00;83.53
20710;BME280;10516;51.518;9.864;2023-05-08T03:32:30;99465.16;;;6.98;83.96
20710;BME280;10516;51.518;9.864;2023-05-08T03:34:57;99465.50;;;7.08;82.80
20710;BME280;10516;51.518;9.864;2023-05-08T03:37:22;99467.31;;;7.52;82.19
20710;BME280;10516;51.518;9.864;2023-05-08T03:39:49;99469.81;;;7.09;83.17
20710;BME280;10516;51.518;9.864;2023-05-08T03:42:14;99459.78;;;7.11;83.61
20710;BME280;10516;51.518;9.864;2023-05-08T03:44:46;99458.94;;;7.17;83.63
20710;BME280;10516;51.518;9.864;2023-05-08T03:47:12;99461.91;;;7.34;81.83
20710;BME280;10516;51.518;9.864;2023-05-08T03:49:38;99460.94;;;7.28;83.33
20710;BME280;10516;51.518;9.864;2023-05-08T03:52:03;99466.03;;;6.86;83.59
20710;BME280;10516;51.518;9.864;2023-05-08T03:54:29;99458.25;;;6.77;84.54
20710;BME280;10516;51.518;9.864;2023-05-08T03:56:54;99461.06;;;6.96;84.69
20710;BME280;10516;51.518;9.864;2023-05-08T03:59:37;99458.72;;;6.68;84.60
20710;BME280;10516;51.518;9.864;2023-05-08T04:04:40;99461.78;;;6.65;84.69
20710;BME280;10516;51.518;9.864;2023-05-08T04:07:11;99474.59;;;6.88;84.31
20710;BME280;10516;51.518;9.864;2023-05-08T04:09:42;99467.28;;;6.70;84.84
20710;BME280;10516;51.518;9.864;2023-05-08T04:12:19;99468.28;;;6.69;85.81
20710;BME280;10516;51.518;9.864;2023-05-08T04:14:51;99470.94;;;6.69;85.39
20710;BME280;10516;51.518;9.864;2023-05-08T04:17:21;99464.19;;;6.73;85.20
20710;BME280;10516;51.518;9.864;2023-05-08T04:19:47;99464.59;;;6.83;84.64
20710;BME280;10516;51.518;9.864;2023-05-08T04:22:16;99466.41;;;6.89;84.89
20710;BME280;10516;51.518;9.864;2023-05-08T04:24:44;99473.19;;;6.72;85.07
20710;BME280;10516;51.518;9.864;2023-05-08T04:27:10;99472.91;;;6.93;84.93
20710;BME280;10516;51.518;9.864;2023-05-08T04:29:36;99477.28;;;6.68;85.04
20710;BME280;10516;51.518;9.864;2023-05-08T04:32:02;99476.44;;;6.80;86.13
20710;BME280;10516;51.518;9.864;2023-05-08T04:34:29;99478.63;;;6.97;86.43
20710;BME280;10516;51.518;9.864;2023-05-08T04:36:54;99486.72;;;7.15;84.97
20710;BME280;10516;51.518;9.864;2023-05-08T04:39:19;99477.81;;;6.96;84.75
20710;BME280;10516;51.518;9.864;2023-05-08T04:41:46;99486.56;;;7.10;85.01
20710;BME280;10516;51.518;9.864;2023-05-08T04:44:12;99481.69;;;7.44;84.50
20710;BME280;10516;51.518;9.864;2023-05-08T04:46:38;99481.69;;;7.44;84.50
20710;BME280;10516;51.518;9.864;2023-05-08T04:49:03;99493.56;;;7.35;82.62
20710;BME280;10516;51.518;9.864;2023-05-08T04:51:28;99484.69;;;7.54;82.90
20710;BME280;10516;51.518;9.864;2023-05-08T04:53:54;99477.63;;;7.73;83.59
20710;BME280;10516;51.518;9.864;2023-05-08T04:56:19;99478.94;;;7.89;82.53
20710;BME280;10516;51.518;9.864;2023-05-08T04:58:44;99486.63;;;7.72;82.56
20710;BME280;10516;51.518;9.864;2023-05-08T05:01:10;99492.63;;;7.61;83.78
20710;BME280;10516;51.518;9.864;2023-05-08T05:03:35;99490.78;;;7.17;83.71
20710;BME280;10516;51.518;9.864;2023-05-08T05:06:00;99493.63;;;7.22;85.35
20710;BME280;10516;51.518;9.864;2023-05-08T05:08:25;99491.34;;;7.32;83.68
20710;BME280;10516;51.518;9.864;2023-05-08T05:10:51;99487.06;;;7.63;83.18
20710;BME280;10516;51.518;9.864;2023-05-08T05:13:16;99494.41;;;7.67;83.29
20710;BME280;10516;51.518;9.864;2023-05-08T05:15:42;99502.16;;;7.75;82.99
20710;BME280;10516;51.518;9.864;2023-05-08T05:18:07;99494.34;;;7.49;82.80
20710;BME280;10516;51.518;9.864;2023-05-08T05:20:33;99498.56;;;7.56;82.65
20710;BME280;10516;51.518;9.864;2023-05-08T05:22:58;99498.63;;;7.81;82.97
20710;BME280;10516;51.518;9.864;2023-05-08T05:25:23;99501.59;;;7.60;83.66
20710;BME280;10516;51.518;9.864;2023-05-08T05:27:48;99503.75;;;7.76;83.31
20710;BME280;10516;51.518;9.864;2023-05-08T05:30:14;99503.81;;;8.01;82.15
20710;BME280;10516;51.518;9.864;2023-05-08T05:32:39;99500.88;;;7.78;83.23
20710;BME280;10516;51.518;9.864;2023-05-08T05:35:05;99497.31;;;8.46;80.97
20710;BME280;10516;51.518;9.864;2023-05-08T05:37:30;99498.00;;;8.60;80.28
20710;BME280;10516;51.518;9.864;2023-05-08T05:39:55;99506.00;;;8.04;82.76
20710;BME280;10516;51.518;9.864;2023-05-08T05:42:20;99506.59;;;7.81;82.30
20710;BME280;10516;51.518;9.864;2023-05-08T05:44:46;99507.34;;;7.95;83.47
20710;BME280;10516;51.518;9.864;2023-05-08T05:47:11;99512.09;;;7.86;82.51
20710;BME280;10516;51.518;9.864;2023-05-08T05:49:36;99516.16;;;8.45;80.44
20710;BME280;10516;51.518;9.864;2023-05-08T05:52:03;99515.50;;;8.49;81.19
20710;BME280;10516;51.518;9.864;2023-05-08T05:54:28;99519.16;;;8.23;80.10
20710;BME280;10516;51.518;9.864;2023-05-08T05:56:54;99506.75;;;9.21;79.29
20710;BME280;10516;51.518;9.864;2023-05-08T05:59:19;99519.91;;;8.37;80.65
20710;BME280;10516;51.518;9.864;2023-05-08T06:01:44;99510.69;;;9.19;79.33
20710;BME280;10516;51.518;9.864;2023-05-08T06:04:09;99506.72;;;8.49;80.95
20710;BME280;10516;51.518;9.864;2023-05-08T06:06:35;99502.19;;;8.92;80.12
20710;BME280;10516;51.518;9.864;2023-05-08T06:09:00;99511.72;;;8.81;79.84
20710;BME280;10516;51.518;9.864;2023-05-08T06:11:25;99509.84;;;9.36;78.55
20710;BME280;10516;51.518;9.864;2023-05-08T06:13:50;99511.56;;;9.90;77.36
20710;BME280;10516;51.518;9.864;2023-05-08T06:16:16;99505.41;;;9.90;77.48
20710;BME280;10516;51.518;9.864;2023-05-08T06:18:41;99507.50;;;9.88;77.02
20710;BME280;10516;51.518;9.864;2023-05-08T06:21:06;99511.59;;;10.02;76.96
20710;BME280;10516;51.518;9.864;2023-05-08T06:23:32;99507.19;;;9.66;77.81
20710;BME280;10516;51.518;9.864;2023-05-08T06:25:57;99500.44;;;9.34;78.09
20710;BME280;10516;51.518;9.864;2023-05-08T06:28:22;99499.78;;;9.98;77.35
20710;BME280;10516;51.518;9.864;2023-05-08T06:30:50;99504.03;;;9.87;76.70
20710;BME280;10516;51.518;9.864;2023-05-08T06:33:15;99500.66;;;9.80;78.02
20710;BME280;10516;51.518;9.864;2023-05-08T06:35:40;99500.41;;;10.23;76.85
20710;BME280;10516;51.518;9.864;2023-05-08T06:38:05;99501.16;;;10.41;76.07
20710;BME280;10516;51.518;9.864;2023-05-08T06:40:31;99503.31;;;10.91;74.53
20710;BME280;10516;51.518;9.864;2023-05-08T06:42:56;99498.84;;;10.04;77.19
20710;BME280;10516;51.518;9.864;2023-05-08T06:45:21;99497.31;;;10.61;76.30
20710;BME280;10516;51.518;9.864;2023-05-08T06:47:46;99507.78;;;10.50;77.45
20710;BME280;10516;51.518;9.864;2023-05-08T06:50:11;99498.81;;;10.45;76.96
20710;BME280;10516;51.518;9.864;2023-05-08T06:52:37;99504.69;;;10.12;77.37
20710;BME280;10516;51.518;9.864;2023-05-08T06:55:02;99497.31;;;10.37;77.44
20710;BME280;10516;51.518;9.864;2023-05-08T06:57:27;99494.75;;;10.31;76.11
20710;BME280;10516;51.518;9.864;2023-05-08T06:59:54;99498.44;;;10.18;77.44
20710;BME280;10516;51.518;9.864;2023-05-08T07:02:19;99500.00;;;10.72;76.32
20710;BME280;10516;51.518;9.864;2023-05-08T07:04:45;99487.06;;;10.11;77.48
20710;BME280;10516;51.518;9.864;2023-05-08T07:07:10;99497.09;;;9.98;77.82
20710;BME280;10516;51.518;9.864;2023-05-08T07:09:36;99495.22;;;10.51;77.36
20710;BME280;10516;51.518;9.864;2023-05-08T07:12:02;99498.28;;;11.29;75.50
20710;BME280;10516;51.518;9.864;2023-05-08T07:14:27;99502.56;;;11.70;73.09
20710;BME280;10516;51.518;9.864;2023-05-08T07:16:52;99505.28;;;11.47;74.33
20710;BME280;10516;51.518;9.864;2023-05-08T07:19:17;99510.16;;;12.06;72.12
20710;BME280;10516;51.518;9.864;2023-05-08T07:21:43;99493.16;;;11.67;73.96
20710;BME280;10516;51.518;9.864;2023-05-08T07:24:10;99505.56;;;12.18;71.99
20710;BME280;10516;51.518;9.864;2023-05-08T07:26:35;99510.03;;;11.84;73.25
20710;BME280;10516;51.518;9.864;2023-05-08T07:29:00;99500.69;;;11.70;74.86
20710;BME280;10516;51.518;9.864;2023-05-08T07:31:26;99504.19;;;12.49;70.94
20710;BME280;10516;51.518;9.864;2023-05-08T07:33:51;99497.06;;;11.76;72.76
20710;BME280;10516;51.518;9.864;2023-05-08T07:36:16;99499.56;;;11.55;74.03
20710;BME280;10516;51.518;9.864;2023-05-08T07:38:41;99495.25;;;12.27;72.81
20710;BME280;10516;51.518;9.864;2023-05-08T07:41:07;99493.00;;;11.62;73.94
20710;BME280;10516;51.518;9.864;2023-05-08T07:43:32;99498.06;;;12.37;72.30
20710;BME280;10516;51.518;9.864;2023-05-08T07:45:57;99493.47;;;12.49;71.89
20710;BME280;10516;51.518;9.864;2023-05-08T07:48:23;99491.09;;;12.52;71.42
20710;BME280;10516;51.518;9.864;2023-05-08T07:50:48;99484.88;;;12.85;70.15
20710;BME280;10516;51.518;9.864;2023-05-08T07:53:14;99492.41;;;12.17;72.71
20710;BME280;10516;51.518;9.864;2023-05-08T07:55:39;99500.25;;;12.07;73.82
20710;BME280;10516;51.518;9.864;2023-05-08T07:58:05;99502.34;;;11.60;75.03
20710;BME280;10516;51.518;9.864;2023-05-08T08:00:30;99495.19;;;12.38;73.74
20710;BME280;10516;51.518;9.864;2023-05-08T08:02:56;99494.75;;;11.96;74.73
20710;BME280;10516;51.518;9.864;2023-05-08T08:05:21;99492.91;;;12.47;73.04
20710;BME280;10516;51.518;9.864;2023-05-08T08:07:46;99497.88;;;12.76;73.92
20710;BME280;10516;51.518;9.864;2023-05-08T08:10:12;99503.56;;;13.18;70.34
20710;BME280;10516;51.518;9.864;2023-05-08T08:12:37;99499.97;;;13.29;70.79
20710;BME280;10516;51.518;9.864;2023-05-08T08:15:03;99502.06;;;12.89;71.98
20710;BME280;10516;51.518;9.864;2023-05-08T08:17:28;99488.13;;;13.25;70.97
20710;BME280;10516;51.518;9.864;2023-05-08T08:19:53;99493.41;;;13.20;71.82
20710;BME280;10516;51.518;9.864;2023-05-08T08:22:19;99495.50;;;13.62;69.63
20710;BME280;10516;51.518;9.864;2023-05-08T08:24:44;99502.91;;;13.54;70.03
20710;BME280;10516;51.518;9.864;2023-05-08T08:27:09;99496.59;;;13.66;69.64
20710;BME280;10516;51.518;9.864;2023-05-08T08:29:35;99499.66;;;13.47;70.97
20710;BME280;10516;51.518;9.864;2023-05-08T08:32:00;99497.22;;;13.24;71.91
20710;BME280;10516;51.518;9.864;2023-05-08T08:34:27;99507.50;;;13.81;69.56
20710;BME280;10516;51.518;9.864;2023-05-08T08:36:52;99502.13;;;13.81;69.95
20710;BME280;10516;51.518;9.864;2023-05-08T08:39:17;99503.06;;;13.65;70.77
20710;BME280;10516;51.518;9.864;2023-05-08T08:41:43;99501.97;;;14.19;68.93
20710;BME280;10516;51.518;9.864;2023-05-08T08:44:08;99508.38;;;14.13;70.09
20710;BME280;10516;51.518;9.864;2023-05-08T08:46:33;99501.00;;;14.03;71.21
20710;BME280;10516;51.518;9.864;2023-05-08T08:49:00;99500.09;;;14.19;71.43
20710;BME280;10516;51.518;9.864;2023-05-08T08:51:27;99494.81;;;13.71;70.68
20710;BME280;10516;51.518;9.864;2023-05-08T08:54:09;99509.34;;;14.34;69.81
20710;BME280;10516;51.518;9.864;2023-05-08T08:56:36;99497.09;;;13.89;69.81
20710;BME280;10516;51.518;9.864;2023-05-08T08:59:02;99493.63;;;14.47;69.54
20710;BME280;10516;51.518;9.864;2023-05-08T09:01:28;99499.44;;;14.71;69.11
20710;BME280;10516;51.518;9.864;2023-05-08T09:03:57;99503.09;;;14.60;69.16
20710;BME280;10516;51.518;9.864;2023-05-08T09:06:23;99496.69;;;15.08;67.23
20710;BME280;10516;51.518;9.864;2023-05-08T09:08:49;99502.97;;;14.76;69.60
20710;BME280;10516;51.518;9.864;2023-05-08T09:11:14;99510.03;;;14.92;68.70
20710;BME280;10516;51.518;9.864;2023-05-08T09:13:39;99505.25;;;14.99;67.71
20710;BME280;10516;51.518;9.864;2023-05-08T09:16:04;99504.75;;;14.61;68.00
20710;BME280;10516;51.518;9.864;2023-05-08T09:18:30;99498.50;;;14.97;68.00
20710;BME280;10516;51.518;9.864;2023-05-08T09:20:55;99495.97;;;14.75;68.12
20710;BME280;10516;51.518;9.864;2023-05-08T09:23:21;99490.41;;;15.44;66.93
20710;BME280;10516;51.518;9.864;2023-05-08T09:25:46;99494.91;;;15.28;67.60
20710;BME280;10516;51.518;9.864;2023-05-08T09:30:56;99493.38;;;15.47;66.55
20710;BME280;10516;51.518;9.864;2023-05-08T09:33:23;99498.28;;;15.03;66.94
20710;BME280;10516;51.518;9.864;2023-05-08T09:35:49;99490.59;;;15.32;66.54
20710;BME280;10516;51.518;9.864;2023-05-08T09:38:48;99490.63;;;15.42;66.03
20710;BME280;10516;51.518;9.864;2023-05-08T09:41:11;99485.31;;;15.47;66.08
20710;BME280;10516;51.518;9.864;2023-05-08T09:43:38;99488.03;;;15.00;65.55
20710;BME280;10516;51.518;9.864;2023-05-08T09:46:25;99484.97;;;14.40;67.25
20710;BME280;10516;51.518;9.864;2023-05-08T09:48:50;99488.97;;;14.38;65.87
20710;BME280;10516;51.518;9.864;2023-05-08T09:51:16;99488.66;;;14.29;67.74
20710;BME280;10516;51.518;9.864;2023-05-08T09:53:41;99486.03;;;14.81;67.55
20710;BME280;10516;51.518;9.864;2023-05-08T09:56:07;99486.72;;;14.61;68.19
20710;BME280;10516;51.518;9.864;2023-05-08T09:58:39;99490.22;;;14.57;67.37
20710;BME280;10516;51.518;9.864;2023-05-08T10:01:04;99493.03;;;14.40;67.53
20710;BME280;10516;51.518;9.864;2023-05-08T10:03:46;99497.28;;;14.73;68.10
20710;BME280;10516;51.518;9.864;2023-05-08T10:06:12;99487.72;;;14.92;67.73
20710;BME280;10516;51.518;9.864;2023-05-08T10:08:38;99485.56;;;14.94;66.46
20710;BME280;10516;51.518;9.864;2023-05-08T10:11:13;99489.59;;;14.86;67.02
20710;BME280;10516;51.518;9.864;2023-05-08T10:13:38;99479.25;;;15.15;65.98
20710;BME280;10516;51.518;9.864;2023-05-08T10:16:04;99476.78;;;15.14;68.00
20710;BME280;10516;51.518;9.864;2023-05-08T10:18:29;99489.13;;;14.99;66.76
20710;BME280;10516;51.518;9.864;2023-05-08T10:20:57;99478.88;;;14.96;67.04
20710;BME280;10516;51.518;9.864;2023-05-08T10:23:24;99470.69;;;15.33;67.30
20710;BME280;10516;51.518;9.864;2023-05-08T10:25:51;99468.94;;;15.69;66.00
20710;BME280;10516;51.518;9.864;2023-05-08T10:28:26;99480.56;;;15.74;65.63
20710;BME280;10516;51.518;9.864;2023-05-08T10:30:52;99480.84;;;15.83;66.78
20710;BME280;10516;51.518;9.864;2023-05-08T10:33:20;99468.81;;;15.29;65.70
20710;BME280;10516;51.518;9.864;2023-05-08T10:35:49;99470.00;;;15.58;66.52
20710;BME280;10516;51.518;9.864;2023-05-08T10:38:15;99467.84;;;15.50;66.25
20710;BME280;10516;51.518;9.864;2023-05-08T10:40:40;99463.84;;;15.72;67.88
20710;BME280;10516;51.518;9.864;2023-05-08T10:43:06;99465.50;;;16.44;66.22
20710;BME280;10516;51.518;9.864;2023-05-08T10:45:31;99458.47;;;16.23;64.37
20710;BME280;10516;51.518;9.864;2023-05-08T10:50:33;99465.66;;;16.98;64.24
20710;BME280;10516;51.518;9.864;2023-05-08T10:53:04;99447.66;;;16.83;63.38
20710;BME280;10516;51.518;9.864;2023-05-08T10:55:32;99459.53;;;17.51;63.22
20710;BME280;10516;51.518;9.864;2023-05-08T11:03:19;99446.19;;;17.21;61.45
20710;BME280;10516;51.518;9.864;2023-05-08T11:05:45;99441.75;;;17.40;63.13
20710;BME280;10516;51.518;9.864;2023-05-08T11:08:15;99439.06;;;17.40;62.23
20710;BME280;10516;51.518;9.864;2023-05-08T11:10:41;99444.19;;;17.37;63.04
20710;BME280;10516;51.518;9.864;2023-05-08T11:13:07;99443.28;;;17.56;61.61
20710;BME280;10516;51.518;9.864;2023-05-08T11:15:37;99432.41;;;18.39;61.33
20710;BME280;10516;51.518;9.864;2023-05-08T11:18:03;99440.75;;;18.71;59.78
20710;BME280;10516;51.518;9.864;2023-05-08T11:20:53;99437.53;;;18.93;58.99
20710;BME280;10516;51.518;9.864;2023-05-08T11:23:25;99434.72;;;18.79;59.52
20710;BME280;10516;51.518;9.864;2023-05-08T11:26:01;99431.44;;;18.82;59.32
20710;BME280;10516;51.518;9.864;2023-05-08T11:28:30;99421.06;;;19.36;57.66
20710;BME280;10516;51.518;9.864;2023-05-08T11:30:55;99430.94;;;19.46;58.19
20710;BME280;10516;51.518;9.864;2023-05-08T11:33:21;99417.56;;;19.31;56.17
20710;BME280;10516;51.518;9.864;2023-05-08T11:38:34;99420.75;;;18.96;55.88
20710;BME280;10516;51.518;9.864;2023-05-08T11:41:06;99410.22;;;19.74;57.27
20710;BME280;10516;51.518;9.864;2023-05-08T11:46:04;99407.19;;;19.94;56.46
20710;BME280;10516;51.518;9.864;2023-05-08T11:48:30;99406.91;;;20.28;56.16
20710;BME280;10516;51.518;9.864;2023-05-08T11:50:58;99407.88;;;20.50;56.03
20710;BME280;10516;51.518;9.864;2023-05-08T11:53:23;99413.09;;;20.60;56.10
20710;BME280;10516;51.518;9.864;2023-05-08T11:55:50;99411.31;;;19.91;53.96
20710;BME280;10516;51.518;9.864;2023-05-08T11:58:16;99405.31;;;19.76;56.40
20710;BME280;10516;51.518;9.864;2023-05-08T12:00:42;99409.16;;;19.88;54.55
20710;BME280;10516;51.518;9.864;2023-05-08T12:03:12;99402.94;;;20.52;55.15
20710;BME280;10516;51.518;9.864;2023-05-08T12:05:37;99413.50;;;20.54;56.40
20710;BME280;10516;51.518;9.864;2023-05-08T12:08:04;99408.91;;;20.81;54.16
20710;BME280;10516;51.518;9.864;2023-05-08T12:10:30;99421.31;;;20.55;54.43
20710;BME280;10516;51.518;9.864;2023-05-08T12:12:55;99414.72;;;20.61;52.70
20710;BME280;10516;51.518;9.864;2023-05-08T12:15:20;99401.44;;;20.46;52.53
20710;BME280;10516;51.518;9.864;2023-05-08T12:17:46;99412.72;;;20.21;53.53
20710;BME280;10516;51.518;9.864;2023-05-08T12:20:15;99412.50;;;20.63;54.98
20710;BME280;10516;51.518;9.864;2023-05-08T12:22:41;99409.09;;;21.26;54.16
20710;BME280;10516;51.518;9.864;2023-05-08T12:25:07;99410.53;;;21.10;52.35
20710;BME280;10516;51.518;9.864;2023-05-08T12:27:34;99401.97;;;21.52;52.59
20710;BME280;10516;51.518;9.864;2023-05-08T12:29:59;99412.44;;;21.94;53.78
20710;BME280;10516;51.518;9.864;2023-05-08T12:32:29;99412.44;;;22.16;50.85
20710;BME280;10516;51.518;9.864;2023-05-08T12:34:54;99407.25;;;22.37;52.42
20710;BME280;10516;51.518;9.864;2023-05-08T12:37:23;99415.94;;;22.48;51.44
20710;BME280;10516;51.518;9.864;2023-05-08T12:39:50;99405.75;;;22.53;52.37
20710;BME280;10516;51.518;9.864;2023-05-08T12:42:15;99407.84;;;22.56;51.20
20710;BME280;10516;51.518;9.864;2023-05-08T12:44:41;99407.22;;;22.90;50.82
20710;BME280;10516;51.518;9.864;2023-05-08T12:47:13;99408.03;;;22.99;47.63
20710;BME280;10516;51.518;9.864;2023-05-08T12:49:39;99410.66;;;23.13;50.66
20710;BME280;10516;51.518;9.864;2023-05-08T12:54:33;99407.25;;;23.07;46.76
20710;BME280;10516;51.518;9.864;2023-05-08T12:56:58;99404.91;;;23.31;50.60
20710;BME280;10516;51.518;9.864;2023-05-08T12:59:28;99407.97;;;23.30;49.66
20710;BME280;10516;51.518;9.864;2023-05-08T13:01:55;99406.41;;;23.46;48.52
20710;BME280;10516;51.518;9.864;2023-05-08T13:04:20;99399.53;;;23.74;49.85
20710;BME280;10516;51.518;9.864;2023-05-08T13:06:52;99391.81;;;23.50;47.12
20710;BME280;10516;51.518;9.864;2023-05-08T13:09:17;99392.94;;;23.75;49.57
20710;BME280;10516;51.518;9.864;2023-05-08T13:11:42;99389.06;;;24.02;49.42
20710;BME280;10516;51.518;9.864;2023-05-08T13:14:07;99390.88;;;23.72;48.02
20710;BME280;10516;51.518;9.864;2023-05-08T13:16:43;99383.63;;;23.50;49.54
20710;BME280;10516;51.518;9.864;2023-05-08T13:19:08;99388.75;;;24.03;49.95
20710;BME280;10516;51.518;9.864;2023-05-08T13:21:33;99394.69;;;24.14;49.30
20710;BME280;10516;51.518;9.864;2023-05-08T13:23:59;99395.97;;;24.16;43.28
20710;BME280;10516;51.518;9.864;2023-05-08T13:26:25;99388.59;;;24.17;46.38
20710;BME280;10516;51.518;9.864;2023-05-08T13:28:50;99396.19;;;24.49;48.70
20710;BME280;10516;51.518;9.864;2023-05-08T13:31:15;99395.94;;;24.25;46.35
20710;BME280;10516;51.518;9.864;2023-05-08T13:33:41;99395.72;;;24.47;48.40
20710;BME280;10516;51.518;9.864;2023-05-08T13:36:06;99397.59;;;23.92;43.64
20710;BME280;10516;51.518;9.864;2023-05-08T13:38:32;99388.97;;;24.53;47.75
20710;BME280;10516;51.518;9.864;2023-05-08T13:40:58;99384.22;;;24.33;43.78
20710;BME280;10516;51.518;9.864;2023-05-08T13:43:23;99388.13;;;23.98;49.25
20710;BME280;10516;51.518;9.864;2023-05-08T13:45:49;99385.41;;;23.80;43.83
20710;BME280;10516;51.518;9.864;2023-05-08T13:48:14;99383.25;;;24.29;43.45